US Aviators Van Nuys Flight School Los Angeles Pilot school at Van Nuys Simulator Flight Training Profesional Pilot Instruction Learn to Fly

U.S. Aviators

Learn to fly here! (818) 779-2105

Weather at Van Nuys Airport

Observed:Sat Apr 19, 04:51 PDT
Age:30 min ago
Wind:Calm
Visibility:10 miles
Clouds:Clear skies
Temperature:55°F (13°C)
Dewpoint:48°F (9°C)
Humidity:77%
Barometer:1014 hPa (29.95 in Hg)

METAR

KVNY 191151Z 00000KT 10SM CLR 13/09 A2995 RMK AO2 SLP135 T01330094 10161 20133 53003